Time;durP1;ratioP1;P1;durP2;ratioP2;P2;SDS_P1;SDS_P2;PMS_P1;PMS_P2;Temp;Humidity;BMP_temperature;BMP_pressure;BME280_temperature;BME280_humidity;BME280_pressure;Samples;Min_cycle;Max_cycle;Signal;HPM_P1;HPM_P2
2021/09/23 00:00:29;;;;;;;3.55;3.25;;;;;;;;;;4699549;30;20218;-87
2021/09/23 00:03:12;;;;;;;4.32;3.13;;;;;;;;;;4699989;30;20198;-86
2021/09/23 00:05:41;;;;;;;4.82;4.47;;;;;;;;;;4699935;30;20210;-87
2021/09/23 00:08:10;;;;;;;3.65;3.03;;;;;;;;;;4699662;30;20785;-86
2021/09/23 00:10:41;;;;;;;6.78;3.67;;;;;;;;;;4699929;30;20273;-87
2021/09/23 00:13:10;;;;;;;7.03;4.10;;;;;;;;;;4699810;30;20230;-86
2021/09/23 00:15:37;;;;;;;3.78;3.47;;;;;;;;;;4699764;30;20218;-87
2021/09/23 00:18:10;;;;;;;2.20;2.10;;;;;;;;;;4699435;30;20238;-86
2021/09/23 00:20:44;;;;;;;2.80;2.60;;;;;;;;;;4699783;30;20223;-86
2021/09/23 00:23:13;;;;;;;3.92;3.53;;;;;;;;;;4699138;30;20199;-86
2021/09/23 00:25:41;;;;;;;4.32;3.60;;;;;;;;;;4699653;30;20202;-86
2021/09/23 00:28:10;;;;;;;3.63;3.28;;;;;;;;;;4699558;30;20604;-86
2021/09/23 00:30:38;;;;;;;3.67;3.38;;;;;;;;;;4699638;30;20201;-86
2021/09/23 00:33:06;;;;;;;4.15;3.75;;;;;;;;;;4699255;30;20225;-87
2021/09/23 00:35:33;;;;;;;4.03;3.63;;;;;;;;;;4699183;30;20211;-86
2021/09/23 00:38:02;;;;;;;5.20;3.92;;;;;;;;;;4699440;30;20238;-87
2021/09/23 00:40:30;;;;;;;4.55;3.85;;;;;;;;;;4699303;30;20221;-87
2021/09/23 00:42:57;;;;;;;4.30;3.60;;;;;;;;;;4699196;30;20241;-86
2021/09/23 00:45:26;;;;;;;3.20;2.90;;;;;;;;;;4699338;30;20242;-86
2021/09/23 00:47:54;;;;;;;3.40;3.10;;;;;;;;;;4698678;30;20749;-86
2021/09/23 00:50:22;;;;;;;5.75;3.85;;;;;;;;;;4699101;30;20549;-86
2021/09/23 00:52:50;;;;;;;4.78;3.58;;;;;;;;;;4699364;30;20202;-87
2021/09/23 00:55:19;;;;;;;4.43;3.88;;;;;;;;;;4698742;30;20575;-86
2021/09/23 00:57:46;;;;;;;3.90;3.50;;;;;;;;;;4699322;30;20230;-87
2021/09/23 01:00:17;;;;;;;3.65;3.30;;;;;;;;;;4699158;30;20218;-87
2021/09/23 01:02:45;;;;;;;3.22;2.92;;;;;;;;;;4682119;30;20290;-86
2021/09/23 01:05:13;;;;;;;2.58;2.38;;;;;;;;;;4682063;30;20598;-87
2021/09/23 01:07:45;;;;;;;3.35;2.78;;;;;;;;;;4682018;30;20246;-87
2021/09/23 01:10:13;;;;;;;3.10;2.83;;;;;;;;;;4682041;30;20207;-87
2021/09/23 01:12:44;;;;;;;3.10;2.80;;;;;;;;;;4681962;30;20206;-87
2021/09/23 01:15:13;;;;;;;3.00;2.70;;;;;;;;;;4681899;30;20230;-87
2021/09/23 01:17:41;;;;;;;2.72;2.53;;;;;;;;;;4682011;30;20246;-87
2021/09/23 01:20:10;;;;;;;3.03;2.83;;;;;;;;;;4681963;30;20199;-87
2021/09/23 01:22:39;;;;;;;2.63;2.42;;;;;;;;;;4681779;30;20235;-85
2021/09/23 01:25:09;;;;;;;3.13;2.40;;;;;;;;;;4681765;30;20668;-87
2021/09/23 01:27:37;;;;;;;2.85;2.60;;;;;;;;;;4681556;30;20704;-86
2021/09/23 01:30:06;;;;;;;2.30;2.10;;;;;;;;;;4681737;30;20578;-86
2021/09/23 01:32:34;;;;;;;3.35;2.65;;;;;;;;;;4681560;30;20210;-86
2021/09/23 01:35:02;;;;;;;2.00;1.90;;;;;;;;;;4681355;30;20324;-86
2021/09/23 01:37:30;;;;;;;2.72;2.53;;;;;;;;;;4681764;30;20235;-86
2021/09/23 01:39:58;;;;;;;2.45;2.25;;;;;;;;;;4681562;30;20218;-86
2021/09/23 01:42:27;;;;;;;2.15;2.05;;;;;;;;;;4709360;30;20667;-86
2021/09/23 01:44:55;;;;;;;2.00;1.90;;;;;;;;;;4715834;30;20233;-86
2021/09/23 01:47:23;;;;;;;2.50;2.30;;;;;;;;;;4715989;30;20222;-85
2021/09/23 01:49:51;;;;;;;2.55;2.25;;;;;;;;;;4714043;30;20194;-86
2021/09/23 01:52:18;;;;;;;2.72;2.53;;;;;;;;;;4698642;30;20218;-87
2021/09/23 01:54:47;;;;;;;3.40;3.10;;;;;;;;;;4698667;30;20246;-87
2021/09/23 01:57:16;;;;;;;3.92;3.50;;;;;;;;;;4697907;30;20230;-87
2021/09/23 01:59:43;;;;;;;3.95;3.65;;;;;;;;;;4701070;30;20207;-88
2021/09/23 02:02:11;;;;;;;4.55;3.63;;;;;;;;;;4695244;30;20711;-86
2021/09/23 02:04:38;;;;;;;3.58;3.28;;;;;;;;;;4684594;30;20211;-87
2021/09/23 02:07:06;;;;;;;3.20;2.90;;;;;;;;;;4684714;30;20204;-86
2021/09/23 02:09:34;;;;;;;2.50;2.30;;;;;;;;;;4684411;30;20229;-85
2021/09/23 02:12:03;;;;;;;3.78;3.45;;;;;;;;;;4683749;30;20227;-86
2021/09/23 02:14:32;;;;;;;3.70;3.40;;;;;;;;;;4683089;30;20246;-86
2021/09/23 02:16:59;;;;;;;4.78;3.88;;;;;;;;;;4683965;30;20227;-86
2021/09/23 02:19:26;;;;;;;3.92;3.63;;;;;;;;;;4684562;30;20199;-87
2021/09/23 02:21:54;;;;;;;4.07;3.78;;;;;;;;;;4684335;30;20192;-86
2021/09/23 02:24:22;;;;;;;4.43;4.03;;;;;;;;;;4684382;30;20195;-85
2021/09/23 02:26:50;;;;;;;3.80;3.50;;;;;;;;;;4684778;30;20654;-86
2021/09/23 02:29:17;;;;;;;3.25;2.95;;;;;;;;;;4699501;30;20250;-87
2021/09/23 02:31:46;;;;;;;3.47;3.03;;;;;;;;;;4700995;30;20215;-87
2021/09/23 02:34:14;;;;;;;3.20;2.90;;;;;;;;;;4700873;30;20239;-86
2021/09/23 02:36:41;;;;;;;2.75;2.55;;;;;;;;;;4701286;30;20199;-86
2021/09/23 02:39:09;;;;;;;3.35;3.05;;;;;;;;;;4701051;30;20614;-87
2021/09/23 02:41:36;;;;;;;3.40;3.00;;;;;;;;;;4701147;30;20206;-86
2021/09/23 02:44:04;;;;;;;3.53;3.22;;;;;;;;;;4700763;30;20242;-85
2021/09/23 02:46:32;;;;;;;2.80;2.60;;;;;;;;;;4701265;30;20199;-85
2021/09/23 02:49:01;;;;;;;2.65;2.45;;;;;;;;;;4701251;30;20242;-86
2021/09/23 02:51:29;;;;;;;3.10;2.75;;;;;;;;;;4701125;30;20261;-86
2021/09/23 02:53:56;;;;;;;3.30;3.10;;;;;;;;;;4700989;30;20195;-85
2021/09/23 02:56:24;;;;;;;3.20;2.80;;;;;;;;;;4700984;30;20246;-86
2021/09/23 02:58:51;;;;;;;3.03;2.83;;;;;;;;;;4700946;30;20234;-86
2021/09/23 03:01:19;;;;;;;3.15;2.90;;;;;;;;;;4700945;30;20220;-86
2021/09/23 03:03:47;;;;;;;3.88;3.58;;;;;;;;;;4700749;30;20191;-86
2021/09/23 03:06:17;;;;;;;4.10;2.90;;;;;;;;;;4700557;30;20199;-86
2021/09/23 03:08:45;;;;;;;3.17;2.97;;;;;;;;;;4700497;30;20246;-83
2021/09/23 03:11:12;;;;;;;4.10;3.75;;;;;;;;;;4700704;30;20202;-87
2021/09/23 03:13:40;;;;;;;4.05;3.65;;;;;;;;;;4700830;30;20210;-87
2021/09/23 03:16:07;;;;;;;3.97;3.65;;;;;;;;;;4700711;30;20241;-82
2021/09/23 03:18:36;;;;;;;3.85;3.47;;;;;;;;;;4700409;30;20591;-87
2021/09/23 03:21:04;;;;;;;3.58;2.97;;;;;;;;;;4700660;30;20203;-87
2021/09/23 03:23:32;;;;;;;3.97;3.60;;;;;;;;;;4700387;30;20272;-88
2021/09/23 03:26:00;;;;;;;4.30;3.97;;;;;;;;;;4683132;30;20234;-87
2021/09/23 03:28:27;;;;;;;3.60;3.30;;;;;;;;;;4683231;30;20257;-88
2021/09/23 03:31:00;;;;;;;4.15;3.75;;;;;;;;;;4688802;30;20218;-87
2021/09/23 03:33:28;;;;;;;4.25;3.65;;;;;;;;;;4699145;30;20198;-86
2021/09/23 03:35:55;;;;;;;3.58;3.28;;;;;;;;;;4699671;30;20237;-86
2021/09/23 03:38:23;;;;;;;3.65;3.45;;;;;;;;;;4699836;30;20245;-87
2021/09/23 03:40:52;;;;;;;5.40;4.90;;;;;;;;;;4699624;30;20202;-87
2021/09/23 03:43:21;;;;;;;4.40;4.00;;;;;;;;;;4685071;30;20250;-86
2021/09/23 03:45:50;;;;;;;3.47;3.17;;;;;;;;;;4682688;30;20222;-86
2021/09/23 03:48:18;;;;;;;4.57;4.03;;;;;;;;;;4682639;30;20259;-87
2021/09/23 03:50:46;;;;;;;4.85;4.13;;;;;;;;;;4682689;30;20806;-87
2021/09/23 03:53:14;;;;;;;4.43;3.97;;;;;;;;;;4682982;30;20208;-86
2021/09/23 03:55:41;;;;;;;4.60;4.20;;;;;;;;;;4682710;30;20219;-87
2021/09/23 03:58:10;;;;;;;4.28;3.85;;;;;;;;;;4682187;30;20235;-87
2021/09/23 04:00:38;;;;;;;6.25;5.65;;;;;;;;;;4682753;30;20222;-87
2021/09/23 04:03:05;;;;;;;7.60;6.43;;;;;;;;;;4682380;30;20714;-87
2021/09/23 04:05:33;;;;;;;5.03;4.53;;;;;;;;;;4682753;30;20195;-87
2021/09/23 04:08:02;;;;;;;5.88;5.03;;;;;;;;;;4681113;30;20257;-86
2021/09/23 04:10:29;;;;;;;4.28;3.88;;;;;;;;;;4682724;30;20723;-87
2021/09/23 04:12:57;;;;;;;4.72;4.38;;;;;;;;;;4682670;30;20229;-87
2021/09/23 04:15:26;;;;;;;6.53;5.93;;;;;;;;;;4682483;30;20239;-88
2021/09/23 04:17:53;;;;;;;4.82;4.43;;;;;;;;;;4682168;30;20637;-87
2021/09/23 04:20:21;;;;;;;7.82;5.50;;;;;;;;;;4682467;30;20200;-87
2021/09/23 04:22:49;;;;;;;6.40;5.72;;;;;;;;;;4681491;30;20211;-86
2021/09/23 04:25:16;;;;;;;5.72;5.10;;;;;;;;;;4682265;30;20254;-86
2021/09/23 04:27:44;;;;;;;4.50;4.10;;;;;;;;;;4681879;30;20743;-85
2021/09/23 04:30:13;;;;;;;5.18;4.75;;;;;;;;;;4681941;30;20214;-86
2021/09/23 04:32:41;;;;;;;6.95;6.32;;;;;;;;;;4682159;30;20219;-87
2021/09/23 04:35:10;;;;;;;5.90;5.30;;;;;;;;;;4682160;30;20246;-86
2021/09/23 04:37:37;;;;;;;7.38;6.68;;;;;;;;;;4682044;30;20227;-86
2021/09/23 04:40:06;;;;;;;7.55;6.85;;;;;;;;;;4682321;30;20222;-84
2021/09/23 04:42:33;;;;;;;6.75;6.15;;;;;;;;;;4685771;30;20201;-86
2021/09/23 04:45:02;;;;;;;5.50;5.00;;;;;;;;;;4682059;30;20217;-87
2021/09/23 04:47:31;;;;;;;6.97;6.28;;;;;;;;;;4681551;30;20237;-87
2021/09/23 04:49:59;;;;;;;6.30;5.75;;;;;;;;;;4682282;30;20206;-87
2021/09/23 04:52:27;;;;;;;5.78;5.07;;;;;;;;;;4681332;30;20223;-87
2021/09/23 04:54:54;;;;;;;5.25;4.75;;;;;;;;;;4682081;30;20199;-86
2021/09/23 04:57:22;;;;;;;4.97;4.47;;;;;;;;;;4681628;30;20239;-86
2021/09/23 04:59:49;;;;;;;4.88;4.43;;;;;;;;;;4688875;30;20206;-87
2021/09/23 05:02:17;;;;;;;5.95;5.45;;;;;;;;;;4699453;30;20202;-87
2021/09/23 05:04:45;;;;;;;7.13;6.53;;;;;;;;;;4699173;30;20191;-87
2021/09/23 05:07:14;;;;;;;7.45;6.75;;;;;;;;;;4709253;30;20292;-87
2021/09/23 05:09:43;;;;;;;6.95;6.07;;;;;;;;;;4716537;30;20761;-86
2021/09/23 05:12:11;;;;;;;7.88;5.03;;;;;;;;;;4716379;30;20560;-88
2021/09/23 05:14:38;;;;;;;7.63;6.82;;;;;;;;;;4714371;30;20205;-87
2021/09/23 05:17:06;;;;;;;4.93;4.53;;;;;;;;;;4699145;30;20576;-87
2021/09/23 05:19:34;;;;;;;6.55;5.95;;;;;;;;;;4699036;30;20697;-87
2021/09/23 05:22:02;;;;;;;8.07;7.25;;;;;;;;;;4701938;30;20221;-87
2021/09/23 05:24:31;;;;;;;7.10;6.43;;;;;;;;;;4716353;30;20222;-87
2021/09/23 05:26:58;;;;;;;8.18;7.28;;;;;;;;;;4715223;30;20217;-86
2021/09/23 05:29:26;;;;;;;6.03;5.07;;;;;;;;;;4715947;30;20221;-86
2021/09/23 05:31:55;;;;;;;6.53;5.50;;;;;;;;;;4698290;30;20677;-87
2021/09/23 05:34:22;;;;;;;8.57;7.03;;;;;;;;;;4702008;30;20667;-84
2021/09/23 05:36:50;;;;;;;7.72;6.97;;;;;;;;;;4700924;30;20293;-85
2021/09/23 05:39:17;;;;;;;8.45;7.55;;;;;;;;;;4701081;30;20202;-87
2021/09/23 05:41:46;;;;;;;9.93;7.88;;;;;;;;;;4701963;30;20565;-87
2021/09/23 05:44:14;;;;;;;8.02;7.03;;;;;;;;;;4700706;30;20617;-86
2021/09/23 05:46:41;;;;;;;6.32;5.72;;;;;;;;;;4700873;30;20199;-87
2021/09/23 05:49:09;;;;;;;8.95;7.00;;;;;;;;;;4694068;30;20270;-85
2021/09/23 05:51:36;;;;;;;5.80;5.20;;;;;;;;;;4701803;30;20214;-85
2021/09/23 05:54:07;;;;;;;4.75;4.35;;;;;;;;;;4684360;30;20567;-86
2021/09/23 05:56:36;;;;;;;8.60;7.80;;;;;;;;;;4684501;30;20261;-86
2021/09/23 05:59:06;;;;;;;7.13;6.38;;;;;;;;;;4695535;30;20235;-89
2021/09/23 06:01:33;;;;;;;5.13;4.63;;;;;;;;;;4701623;30;20202;-87
2021/09/23 06:04:01;;;;;;;5.25;4.75;;;;;;;;;;4701946;30;20210;-88
2021/09/23 06:06:28;;;;;;;7.68;6.90;;;;;;;;;;4702090;30;20274;-88
2021/09/23 06:08:57;;;;;;;6.38;5.78;;;;;;;;;;4701833;30;20234;-88
2021/09/23 06:11:24;;;;;;;6.85;6.15;;;;;;;;;;4701455;30;20222;-85
2021/09/23 06:13:52;;;;;;;6.95;6.35;;;;;;;;;;4701462;30;20219;-87
2021/09/23 06:16:20;;;;;;;6.15;5.55;;;;;;;;;;4701776;30;20199;-86
2021/09/23 06:18:48;;;;;;;7.20;5.65;;;;;;;;;;4701512;30;20238;-85
2021/09/23 06:21:16;;;;;;;7.28;6.53;;;;;;;;;;4701508;30;20222;-86
2021/09/23 06:23:43;;;;;;;6.25;5.40;;;;;;;;;;4701264;30;20859;-87
2021/09/23 06:26:11;;;;;;;7.07;6.38;;;;;;;;;;4701391;30;20198;-89
2021/09/23 06:28:38;;;;;;;7.60;5.93;;;;;;;;;;4701002;30;20749;-88
2021/09/23 06:31:05;;;;;;;9.05;8.15;;;;;;;;;;4701465;30;20217;-87
2021/09/23 06:33:35;;;;;;;12.55;8.90;;;;;;;;;;4700799;30;20211;-89
2021/09/23 06:36:03;;;;;;;8.15;6.53;;;;;;;;;;4701280;30;20659;-86
2021/09/23 06:38:30;;;;;;;7.30;6.63;;;;;;;;;;4700908;30;20226;-86
2021/09/23 06:40:58;;;;;;;10.07;9.13;;;;;;;;;;4701127;30;20210;-85
2021/09/23 06:43:25;;;;;;;7.50;6.80;;;;;;;;;;4700965;30;20246;-87
2021/09/23 06:45:53;;;;;;;8.13;7.32;;;;;;;;;;4700502;30;20217;-88
2021/09/23 06:48:20;;;;;;;8.45;7.53;;;;;;;;;;4695057;30;20238;-89
2021/09/23 06:50:49;;;;;;;14.07;8.30;;;;;;;;;;4683587;30;20708;-88
2021/09/23 06:53:16;;;;;;;7.28;6.57;;;;;;;;;;4683863;30;20207;-87
2021/09/23 06:55:44;;;;;;;11.50;8.60;;;;;;;;;;4683794;30;20206;-89
2021/09/23 06:58:11;;;;;;;6.53;5.93;;;;;;;;;;4683357;30;20888;-87
2021/09/23 07:00:40;;;;;;;6.28;5.68;;;;;;;;;;4683449;30;20688;-87
2021/09/23 07:03:07;;;;;;;6.47;5.85;;;;;;;;;;4683740;30;20638;-85
2021/09/23 07:05:35;;;;;;;6.63;5.80;;;;;;;;;;4683437;30;20200;-86
2021/09/23 07:08:04;;;;;;;4.88;4.40;;;;;;;;;;4687230;30;20228;-87
2021/09/23 07:10:31;;;;;;;6.07;5.47;;;;;;;;;;4700694;30;20203;-88
2021/09/23 07:12:59;;;;;;;6.78;6.10;;;;;;;;;;4700606;30;20202;-88
2021/09/23 07:15:26;;;;;;;6.13;5.53;;;;;;;;;;4700417;30;20577;-87
2021/09/23 07:17:55;;;;;;;4.47;4.07;;;;;;;;;;4700245;30;20231;-87
2021/09/23 07:20:23;;;;;;;4.68;4.28;;;;;;;;;;4700564;30;20218;-88
2021/09/23 07:22:50;;;;;;;6.72;6.13;;;;;;;;;;4700734;30;20198;-87
2021/09/23 07:25:23;;;;;;;9.07;8.20;;;;;;;;;;4700116;30;20651;-87
2021/09/23 07:27:51;;;;;;;6.75;6.07;;;;;;;;;;4700158;30;20296;-89
2021/09/23 07:30:19;;;;;;;5.85;5.35;;;;;;;;;;4700440;30;20316;-88
2021/09/23 07:32:47;;;;;;;6.35;5.75;;;;;;;;;;4700358;30;20207;-89
2021/09/23 07:35:15;;;;;;;7.35;6.47;;;;;;;;;;4700280;30;20205;-89
2021/09/23 07:37:43;;;;;;;5.70;5.20;;;;;;;;;;4699986;30;20254;-87
2021/09/23 07:40:12;;;;;;;7.00;6.30;;;;;;;;;;4699550;30;20205;-89
2021/09/23 07:42:41;;;;;;;6.60;5.95;;;;;;;;;;4699791;30;20565;-88
2021/09/23 07:45:12;;;;;;;5.63;5.13;;;;;;;;;;4700309;30;20213;-89
2021/09/23 07:47:39;;;;;;;6.13;5.60;;;;;;;;;;4700114;30;20788;-88
2021/09/23 07:50:08;;;;;;;7.07;6.38;;;;;;;;;;4700078;30;20191;-87
2021/09/23 07:52:35;;;;;;;7.70;7.00;;;;;;;;;;4700078;30;20258;-87
2021/09/23 07:55:03;;;;;;;7.50;6.78;;;;;;;;;;4699301;30;20297;-88
2021/09/23 07:57:31;;;;;;;7.07;6.38;;;;;;;;;;4698605;30;20714;-85
2021/09/23 08:00:00;;;;;;;6.13;5.63;;;;;;;;;;4699772;30;20293;-88
2021/09/23 08:02:27;;;;;;;6.10;5.60;;;;;;;;;;4691516;30;20210;-87
2021/09/23 08:04:54;;;;;;;7.85;7.20;;;;;;;;;;4682353;30;20219;-89
2021/09/23 08:07:22;;;;;;;5.43;4.93;;;;;;;;;;4692882;30;20231;-86
2021/09/23 08:09:49;;;;;;;6.22;5.60;;;;;;;;;;4699275;30;20606;-86
2021/09/23 08:12:17;;;;;;;5.75;5.25;;;;;;;;;;4699512;30;20224;-86
2021/09/23 08:14:45;;;;;;;5.47;4.97;;;;;;;;;;4699354;30;20576;-86
2021/09/23 08:17:13;;;;;;;5.13;4.63;;;;;;;;;;4698834;30;20234;-90
2021/09/23 08:19:42;;;;;;;6.95;5.95;;;;;;;;;;4699295;30;20203;-86
2021/09/23 08:22:09;;;;;;;6.88;6.28;;;;;;;;;;4699802;30;20199;-89
2021/09/23 08:24:37;;;;;;;6.35;5.75;;;;;;;;;;4699184;30;20211;-88
2021/09/23 08:27:05;;;;;;;6.88;6.05;;;;;;;;;;4699488;30;20213;-86
2021/09/23 08:29:33;;;;;;;7.28;6.57;;;;;;;;;;4698565;30;20217;-89
2021/09/23 08:32:00;;;;;;;6.78;6.18;;;;;;;;;;4699970;30;20278;-90
2021/09/23 08:34:29;;;;;;;6.13;5.53;;;;;;;;;;4699272;30;20261;-91
2021/09/23 08:36:57;;;;;;;7.13;6.43;;;;;;;;;;4699740;30;20226;-89
2021/09/23 08:39:24;;;;;;;6.40;5.85;;;;;;;;;;4699085;30;20707;-89
2021/09/23 08:41:52;;;;;;;6.90;6.10;;;;;;;;;;4698963;30;20215;-89
2021/09/23 08:44:19;;;;;;;5.18;4.68;;;;;;;;;;4698803;30;20250;-88
2021/09/23 08:46:47;;;;;;;3.38;3.08;;;;;;;;;;4699393;30;20199;-88
2021/09/23 08:49:14;;;;;;;2.20;2.00;;;;;;;;;;4699285;30;20237;-89
2021/09/23 08:51:43;;;;;;;2.53;2.33;;;;;;;;;;4694930;30;20211;-91
2021/09/23 08:54:29;;;;;;;2.33;2.20;;;;;;;;;;4683349;30;20287;-92
2021/09/23 08:57:01;;;;;;;2.08;1.92;;;;;;;;;;4681312;30;20588;-90
2021/09/23 08:59:30;;;;;;;1.50;1.40;;;;;;;;;;4695471;30;20233;-88
2021/09/23 09:01:59;;;;;;;1.90;1.80;;;;;;;;;;4698889;30;20254;-87
2021/09/23 09:04:33;;;;;;;2.28;2.08;;;;;;;;;;4689660;30;21793;-88
2021/09/23 09:07:03;;;;;;;2.33;2.10;;;;;;;;;;4698898;30;20203;-87
2021/09/23 09:09:31;;;;;;;2.13;1.90;;;;;;;;;;4702579;30;20579;-88
2021/09/23 09:11:59;;;;;;;2.05;1.95;;;;;;;;;;4689494;30;20597;-89
2021/09/23 09:14:29;;;;;;;2.78;1.80;;;;;;;;;;4685377;30;20986;-87
2021/09/23 09:17:02;;;;;;;1.80;1.60;;;;;;;;;;4685466;30;20200;-88
2021/09/23 09:19:47;;;;;;;1.63;1.52;;;;;;;;;;4699049;30;20229;-87
2021/09/23 09:22:18;;;;;;;1.85;1.75;;;;;;;;;;4685394;30;20226;-87
2021/09/23 09:24:53;;;;;;;1.67;1.58;;;;;;;;;;4685151;30;20199;-87
2021/09/23 09:27:33;;;;;;;1.90;1.80;;;;;;;;;;4694853;30;20316;-88
2021/09/23 09:30:05;;;;;;;1.63;1.52;;;;;;;;;;4685226;30;20246;-86
2021/09/23 09:32:43;;;;;;;1.80;1.70;;;;;;;;;;4685174;30;20203;-87
2021/09/23 09:35:15;;;;;;;2.40;2.25;;;;;;;;;;4685200;30;20206;-88
2021/09/23 09:37:47;;;;;;;1.95;1.85;;;;;;;;;;4686006;30;20241;-90
2021/09/23 09:40:24;;;;;;;4.03;2.00;;;;;;;;;;4701871;30;20687;-92
2021/09/23 09:42:54;;;;;;;1.70;1.60;;;;;;;;;;4702117;30;20221;-89
2021/09/23 09:45:26;;;;;;;1.98;1.88;;;;;;;;;;4701952;30;20214;-89
2021/09/23 09:47:54;;;;;;;1.85;1.75;;;;;;;;;;4702047;30;20233;-91
2021/09/23 09:50:24;;;;;;;2.70;2.50;;;;;;;;;;4702010;30;20206;-92
2021/09/23 09:52:58;;;;;;;2.17;2.00;;;;;;;;;;4686612;30;20254;-91
2021/09/23 09:55:26;;;;;;;5.00;2.88;;;;;;;;;;4684612;30;20214;-91
2021/09/23 09:57:55;;;;;;;3.03;2.80;;;;;;;;;;4687642;30;20230;-90
2021/09/23 10:00:24;;;;;;;2.15;2.03;;;;;;;;;;4701927;30;20321;-90
2021/09/23 10:02:52;;;;;;;2.97;2.33;;;;;;;;;;4701318;30;20286;-89
2021/09/23 10:05:22;;;;;;;2.47;2.28;;;;;;;;;;4701815;30;20282;-91
2021/09/23 10:07:53;;;;;;;2.50;2.30;;;;;;;;;;4699551;30;20238;-87
2021/09/23 10:10:24;;;;;;;1.70;1.60;;;;;;;;;;4684421;30;20203;-90
2021/09/23 10:12:57;;;;;;;1.92;1.83;;;;;;;;;;4698655;30;20210;-90
2021/09/23 10:15:25;;;;;;;2.20;2.08;;;;;;;;;;4701956;30;20199;-89
2021/09/23 10:17:55;;;;;;;2.20;2.10;;;;;;;;;;4701269;30;20226;-90
2021/09/23 10:20:30;;;;;;;2.10;1.98;;;;;;;;;;4700591;30;20744;-91
2021/09/23 10:23:00;;;;;;;1.80;1.67;;;;;;;;;;4701656;30;20213;-87
2021/09/23 10:25:32;;;;;;;3.13;1.63;;;;;;;;;;4701667;30;20202;-87
2021/09/23 10:28:02;;;;;;;1.85;1.75;;;;;;;;;;4701466;30;20237;-90
2021/09/23 10:30:33;;;;;;;1.70;1.60;;;;;;;;;;4700427;30;20211;-89
2021/09/23 10:33:02;;;;;;;1.70;1.60;;;;;;;;;;4700878;30;20269;-88
2021/09/23 10:35:32;;;;;;;1.27;1.20;;;;;;;;;;4701077;30;20218;-88
2021/09/23 10:38:04;;;;;;;1.50;1.40;;;;;;;;;;4700928;30;20226;-88
2021/09/23 10:40:35;;;;;;;1.50;1.40;;;;;;;;;;4701144;30;20345;-89
2021/09/23 10:43:06;;;;;;;1.30;1.20;;;;;;;;;;4700995;30;20238;-90
2021/09/23 10:45:36;;;;;;;1.88;1.77;;;;;;;;;;4701302;30;20225;-88
2021/09/23 10:48:04;;;;;;;1.33;1.23;;;;;;;;;;4700805;30;20227;-88
2021/09/23 10:50:35;;;;;;;1.30;1.30;;;;;;;;;;4700922;30;20215;-88
2021/09/23 10:53:06;;;;;;;1.20;1.20;;;;;;;;;;4700940;30;20779;-89
2021/09/23 10:55:38;;;;;;;1.23;1.17;;;;;;;;;;4700925;30;20753;-90
2021/09/23 10:58:08;;;;;;;1.67;1.58;;;;;;;;;;4696691;30;20235;-89
2021/09/23 11:00:36;;;;;;;2.15;1.60;;;;;;;;;;4694724;30;20245;-89
2021/09/23 11:03:07;;;;;;;1.10;1.10;;;;;;;;;;4700661;30;20199;-89
2021/09/23 11:05:35;;;;;;;1.65;1.55;;;;;;;;;;4701080;30;20199;-89
2021/09/23 11:08:10;;;;;;;1.10;1.10;;;;;;;;;;4700973;30;20233;-87
2021/09/23 11:10:41;;;;;;;1.10;1.10;;;;;;;;;;4700825;30;20210;-87
2021/09/23 11:13:11;;;;;;;2.58;1.13;;;;;;;;;;4700900;30;20548;-88
2021/09/23 11:15:43;;;;;;;1.40;1.30;;;;;;;;;;4700478;30;20222;-88
2021/09/23 11:18:11;;;;;;;1.25;1.20;;;;;;;;;;4700408;30;20226;-87
2021/09/23 11:20:44;;;;;;;1.00;1.00;;;;;;;;;;4700372;30;20223;-87
2021/09/23 11:23:14;;;;;;;1.60;1.23;;;;;;;;;;4700416;30;20199;-86
2021/09/23 11:25:48;;;;;;;1.40;1.30;;;;;;;;;;4700671;30;20281;-87
2021/09/23 11:28:17;;;;;;;1.42;1.33;;;;;;;;;;4700337;30;20229;-86
2021/09/23 11:30:45;;;;;;;1.00;1.00;;;;;;;;;;4700180;30;20199;-88
2021/09/23 11:33:16;;;;;;;1.42;1.33;;;;;;;;;;4700621;30;20227;-87
2021/09/23 11:35:46;;;;;;;3.72;1.27;;;;;;;;;;4700418;30;20198;-87
2021/09/23 11:38:19;;;;;;;1.42;1.33;;;;;;;;;;4699920;30;20230;-88
2021/09/23 11:40:49;;;;;;;1.02;1.02;;;;;;;;;;4699941;30;20789;-89
2021/09/23 11:43:19;;;;;;;1.42;1.33;;;;;;;;;;4700236;30;20242;-87
2021/09/23 11:45:51;;;;;;;0.90;0.90;;;;;;;;;;4700374;30;20621;-89
2021/09/23 11:48:23;;;;;;;1.48;1.38;;;;;;;;;;4694620;30;20247;-88
2021/09/23 11:50:56;;;;;;;1.00;1.00;;;;;;;;;;4696843;30;20572;-89
2021/09/23 11:53:28;;;;;;;1.60;1.50;;;;;;;;;;4700609;30;20286;-89
2021/09/23 11:56:01;;;;;;;1.52;1.42;;;;;;;;;;4700241;30;20210;-89
2021/09/23 11:58:31;;;;;;;1.40;1.30;;;;;;;;;;4692894;30;20716;-89
2021/09/23 12:00:59;;;;;;;1.50;1.40;;;;;;;;;;4697199;30;20631;-86
2021/09/23 12:03:27;;;;;;;1.50;1.40;;;;;;;;;;4700187;30;20227;-90
2021/09/23 12:05:57;;;;;;;1.17;1.17;;;;;;;;;;4700204;30;20195;-90
2021/09/23 12:08:29;;;;;;;1.30;1.20;;;;;;;;;;4699794;30;20226;-88
2021/09/23 12:10:59;;;;;;;0.90;0.90;;;;;;;;;;4699815;30;20214;-89
2021/09/23 12:13:36;;;;;;;1.13;1.13;;;;;;;;;;4699726;30;20199;-89
2021/09/23 12:16:06;;;;;;;1.60;1.50;;;;;;;;;;4700611;30;20206;-86
2021/09/23 12:18:35;;;;;;;1.15;1.15;;;;;;;;;;4700642;30;20242;-87
2021/09/23 12:21:05;;;;;;;1.00;1.00;;;;;;;;;;4699959;30;20238;-86
2021/09/23 12:23:39;;;;;;;1.20;1.10;;;;;;;;;;4700479;30;20222;-87
2021/09/23 12:26:16;;;;;;;1.13;1.05;;;;;;;;;;4700459;30;20191;-87
2021/09/23 12:29:01;;;;;;;1.42;1.35;;;;;;;;;;4701085;30;20230;-87
2021/09/23 12:31:33;;;;;;;1.45;1.35;;;;;;;;;;4698947;30;20210;-88
2021/09/23 12:34:05;;;;;;;1.85;1.20;;;;;;;;;;4700166;30;20301;-87
2021/09/23 12:36:35;;;;;;;0.85;0.85;;;;;;;;;;4699897;30;20506;-86
2021/09/23 12:39:26;;;;;;;2.25;1.10;;;;;;;;;;4700129;30;20611;-88
2021/09/23 12:42:04;;;;;;;0.90;0.90;;;;;;;;;;4699134;30;20242;-88
2021/09/23 12:44:33;;;;;;;1.10;1.10;;;;;;;;;;4700329;30;20643;-86
2021/09/23 12:47:12;;;;;;;1.27;1.10;;;;;;;;;;4700687;30;20687;-86
2021/09/23 12:49:42;;;;;;;1.00;1.00;;;;;;;;;;4700170;30;20210;-88
2021/09/23 12:52:19;;;;;;;1.45;1.35;;;;;;;;;;4700308;30;20297;-87
2021/09/23 12:54:57;;;;;;;0.90;0.90;;;;;;;;;;4699596;30;20218;-87
2021/09/23 12:57:27;;;;;;;1.35;1.25;;;;;;;;;;4699715;30;20238;-86
2021/09/23 13:00:11;;;;;;;1.00;1.00;;;;;;;;;;4700123;30;20207;-87
2021/09/23 13:02:39;;;;;;;1.10;1.10;;;;;;;;;;4700078;30;20225;-87
2021/09/23 13:05:12;;;;;;;1.23;1.13;;;;;;;;;;4699649;30;20217;-88
2021/09/23 13:07:49;;;;;;;0.93;0.93;;;;;;;;;;4699652;30;20483;-87
2021/09/23 13:10:20;;;;;;;1.40;1.30;;;;;;;;;;4698997;30;20705;-87
2021/09/23 13:12:49;;;;;;;1.02;1.02;;;;;;;;;;4699833;30;20234;-88
2021/09/23 13:15:24;;;;;;;1.02;0.98;;;;;;;;;;4699514;30;20197;-87
2021/09/23 13:18:09;;;;;;;1.02;0.93;;;;;;;;;;4686611;30;20241;-87
2021/09/23 13:20:42;;;;;;;1.20;1.20;;;;;;;;;;4711950;30;20245;-91
2021/09/23 13:23:16;;;;;;;1.23;1.23;;;;;;;;;;4700461;30;20203;-85
2021/09/23 13:25:45;;;;;;;1.08;0.98;;;;;;;;;;4699961;30;20225;-86
2021/09/23 13:28:24;;;;;;;0.98;0.98;;;;;;;;;;4699787;30;20238;-86
2021/09/23 13:30:53;;;;;;;1.00;1.00;;;;;;;;;;4700038;30;20197;-86
2021/09/23 13:33:23;;;;;;;1.20;1.10;;;;;;;;;;4700188;30;20572;-86
2021/09/23 13:35:53;;;;;;;0.82;0.82;;;;;;;;;;4698106;30;20225;-86
2021/09/23 13:38:22;;;;;;;1.25;1.17;;;;;;;;;;4687997;30;20230;-86
2021/09/23 13:40:52;;;;;;;1.45;1.35;;;;;;;;;;4687472;30;20342;-86
2021/09/23 13:43:20;;;;;;;1.65;1.20;;;;;;;;;;4698856;30;20242;-86
2021/09/23 13:45:48;;;;;;;1.23;1.13;;;;;;;;;;4699326;30;20218;-86
2021/09/23 13:48:16;;;;;;;1.00;1.00;;;;;;;;;;4710872;30;20241;-86
2021/09/23 13:50:45;;;;;;;1.00;1.00;;;;;;;;;;4714405;30;20206;-87
2021/09/23 13:53:12;;;;;;;1.30;1.23;;;;;;;;;;4699125;30;20261;-86
2021/09/23 13:55:40;;;;;;;0.88;0.88;;;;;;;;;;4714262;30;20218;-85
2021/09/23 13:58:09;;;;;;;1.23;1.13;;;;;;;;;;4712195;30;20590;-85
2021/09/23 14:00:38;;;;;;;0.90;0.90;;;;;;;;;;4700451;30;20825;-86
2021/09/23 14:03:06;;;;;;;0.82;0.82;;;;;;;;;;4700055;30;20222;-86
2021/09/23 14:05:49;;;;;;;0.85;0.85;;;;;;;;;;4701670;30;20207;-87
2021/09/23 14:08:17;;;;;;;1.15;1.10;;;;;;;;;;4686010;30;20247;-85
2021/09/23 14:10:45;;;;;;;0.82;0.77;;;;;;;;;;4695981;30;20230;-85
2021/09/23 14:13:13;;;;;;;1.45;1.02;;;;;;;;;;4702092;30;20209;-85
2021/09/23 14:15:41;;;;;;;0.98;0.98;;;;;;;;;;4697256;30;20218;-84
2021/09/23 14:18:10;;;;;;;1.00;1.00;;;;;;;;;;4701843;30;20223;-84
2021/09/23 14:20:37;;;;;;;1.27;1.17;;;;;;;;;;4702015;30;20222;-85
2021/09/23 14:23:05;;;;;;;1.00;0.98;;;;;;;;;;4701903;30;20228;-85
2021/09/23 14:25:34;;;;;;;0.85;0.85;;;;;;;;;;4702574;30;20590;-86
2021/09/23 14:28:04;;;;;;;1.05;1.05;;;;;;;;;;4701966;30;20227;-86
2021/09/23 14:30:34;;;;;;;1.02;1.02;;;;;;;;;;4701586;30;20206;-85
2021/09/23 14:33:03;;;;;;;1.00;1.00;;;;;;;;;;4695939;30;20237;-85
2021/09/23 14:35:31;;;;;;;1.17;1.10;;;;;;;;;;4700985;30;20210;-84
2021/09/23 14:38:00;;;;;;;1.35;1.00;;;;;;;;;;4699907;30;20234;-84
2021/09/23 14:40:31;;;;;;;1.02;1.02;;;;;;;;;;4703437;30;20705;-84
2021/09/23 14:42:59;;;;;;;0.90;0.90;;;;;;;;;;4700990;30;20218;-85
2021/09/23 14:45:26;;;;;;;1.08;1.00;;;;;;;;;;4701377;30;20225;-85
2021/09/23 14:47:55;;;;;;;0.95;0.95;;;;;;;;;;4701287;30;20226;-84
2021/09/23 14:50:23;;;;;;;1.50;1.40;;;;;;;;;;4713602;30;20211;-84
2021/09/23 14:52:50;;;;;;;2.03;1.58;;;;;;;;;;4701357;30;20191;-85
2021/09/23 14:55:18;;;;;;;1.55;1.42;;;;;;;;;;4701674;30;20202;-85